createdAt,value
2022-08-26T00:00:20.437Z,97020.50
2022-08-26T00:02:48.948Z,97010.00
2022-08-26T00:05:17.425Z,97017.00
2022-08-26T00:07:46.297Z,97010.81
2022-08-26T00:10:16.458Z,97010.81
2022-08-26T00:12:45.948Z,97013.50
2022-08-26T00:15:16.553Z,97011.03
2022-08-26T00:17:45.012Z,97007.50
2022-08-26T00:20:15.630Z,96999.66
2022-08-26T00:22:44.469Z,97002.34
2022-08-26T00:25:13.301Z,97004.22
2022-08-26T00:27:44.126Z,96998.00
2022-08-26T00:30:15.510Z,97006.06
2022-08-26T00:32:44.141Z,97006.06
2022-08-26T00:35:15.306Z,97010.59
2022-08-26T00:37:44.520Z,97009.78
2022-08-26T00:40:18.417Z,97006.47
2022-08-26T00:42:48.658Z,97014.53
2022-08-26T00:45:17.466Z,97008.34
2022-08-26T00:47:48.899Z,97012.88
2022-08-26T00:50:20.874Z,97007.94
2022-08-26T00:52:49.621Z,97016.59
2022-08-26T00:55:20.882Z,97010.41
2022-08-26T00:57:52.945Z,97013.28
2022-08-26T01:00:24.589Z,97016.19
2022-08-26T01:02:53.487Z,97013.28
2022-08-26T01:05:21.973Z,97012.69
2022-08-26T01:07:50.537Z,97011.66
2022-08-26T01:10:21.902Z,97009.16
2022-08-26T01:12:55.363Z,97008.34
2022-08-26T01:15:27.127Z,97009.38
2022-08-26T01:17:58.917Z,97008.53
2022-08-26T01:20:32.388Z,97011.03
2022-08-26T01:23:03.974Z,97012.06
2022-08-26T01:25:34.884Z,97011.22
2022-08-26T01:28:06.642Z,97013.28
2022-08-26T01:30:36.131Z,97010.81
2022-08-26T01:33:06.895Z,97013.09
2022-08-26T01:35:35.579Z,97018.25
2022-08-26T01:38:06.465Z,97009.16
2022-08-26T01:40:38.430Z,97016.59
2022-08-26T01:43:09.039Z,97007.94
2022-08-26T01:45:38.399Z,97008.75
2022-08-26T01:48:11.582Z,97014.31
2022-08-26T01:50:40.195Z,97008.13
2022-08-26T01:53:12.642Z,97011.03
2022-08-26T01:55:43.906Z,97007.31
2022-08-26T01:58:17.554Z,97014.53
2022-08-26T02:00:47.604Z,97008.53
2022-08-26T02:03:22.171Z,97008.34
2022-08-26T02:05:54.376Z,97006.88
2022-08-26T02:08:28.002Z,97010.59
2022-08-26T02:10:56.605Z,97004.41
2022-08-26T02:13:28.942Z,97006.28
2022-08-26T02:15:57.923Z,97010.81
2022-08-26T02:18:26.910Z,97011.00
2022-08-26T02:20:56.369Z,97011.84
2022-08-26T02:23:26.425Z,97007.75
2022-08-26T02:25:57.958Z,97013.94
2022-08-26T02:28:28.956Z,97008.78
2022-08-26T02:30:57.349Z,97005.25
2022-08-26T02:33:26.132Z,97005.47
2022-08-26T02:35:56.273Z,97006.28
2022-08-26T02:38:26.114Z,97001.13
2022-08-26T02:40:54.916Z,97007.53
2022-08-26T02:43:31.175Z,97004.84
2022-08-26T02:46:02.178Z,97012.91
2022-08-26T02:48:31.607Z,96999.69
2022-08-26T02:51:01.845Z,97004.44
2022-08-26T02:53:35.505Z,97002.56
2022-08-26T02:56:04.898Z,97000.94
2022-08-26T02:58:33.570Z,97002.78
2022-08-26T03:01:02.626Z,97002.78
2022-08-26T03:03:33.927Z,97003.81
2022-08-26T03:06:03.470Z,97005.88
2022-08-26T03:08:33.357Z,96998.84
2022-08-26T03:11:01.754Z,97001.53
2022-08-26T03:13:30.350Z,96999.69
2022-08-26T03:16:01.708Z,96990.81
2022-08-26T03:18:30.254Z,96996.38
2022-08-26T03:20:58.906Z,96993.91
2022-08-26T03:23:27.302Z,96992.06
2022-08-26T03:25:58.445Z,96995.75
2022-08-26T03:28:27.031Z,96992.25
2022-08-26T03:30:54.951Z,96983.38
2022-08-26T03:33:23.647Z,96990.59
2022-08-26T03:35:52.598Z,96985.25
2022-08-26T03:38:21.380Z,96992.66
2022-08-26T03:40:49.953Z,96999.69
2022-08-26T03:43:21.433Z,96989.16
2022-08-26T03:45:50.000Z,96993.69
2022-08-26T03:48:19.704Z,96991.00
2022-08-26T03:50:48.809Z,96992.03
2022-08-26T03:53:20.491Z,96991.22
2022-08-26T03:55:49.024Z,96993.06
2022-08-26T03:58:24.282Z,96994.94
2022-08-26T04:00:55.443Z,96989.78
2022-08-26T04:03:38.358Z,96987.72
2022-08-26T04:06:07.526Z,96988.94
2022-08-26T04:08:36.008Z,96989.38
2022-08-26T04:11:04.637Z,96984.81
2022-08-26T04:13:34.459Z,96992.88
2022-08-26T04:16:03.042Z,96992.25
2022-08-26T04:18:36.907Z,96982.75
2022-08-26T04:21:07.893Z,96985.66
2022-08-26T04:23:47.305Z,96997.41
2022-08-26T04:26:17.333Z,96993.91
2022-08-26T04:28:47.137Z,96993.47
2022-08-26T04:31:17.419Z,96990.16
2022-08-26T04:33:47.658Z,96989.13
2022-08-26T04:36:20.076Z,96990.97
2022-08-26T04:38:50.652Z,96984.97
2022-08-26T04:41:20.609Z,96997.97
2022-08-26T04:43:50.823Z,96993.44
2022-08-26T04:46:22.671Z,97000.66
2022-08-26T04:48:52.569Z,97000.03
2022-08-26T04:51:27.224Z,96993.00
2022-08-26T04:53:57.124Z,96991.38
2022-08-26T04:56:26.254Z,96997.56
2022-08-26T04:58:56.529Z,97002.09
2022-08-26T05:01:25.103Z,96997.56
2022-08-26T05:03:54.722Z,97002.09
2022-08-26T05:06:23.236Z,97000.44
2022-08-26T05:08:51.841Z,97009.50
2022-08-26T05:11:22.151Z,97011.16
2022-08-26T05:13:50.609Z,97008.69
2022-08-26T05:16:20.470Z,97008.88
2022-08-26T05:18:49.163Z,97016.91
2022-08-26T05:21:20.047Z,97016.09
2022-08-26T05:23:50.496Z,97010.72
2022-08-26T05:26:23.116Z,97022.28
2022-08-26T05:28:54.683Z,97015.28
2022-08-26T05:31:27.607Z,97015.47
2022-08-26T05:33:57.532Z,97010.94
2022-08-26T05:36:28.830Z,97005.56
2022-08-26T05:38:58.052Z,97013.63
2022-08-26T05:41:34.490Z,97012.78
2022-08-26T05:44:07.059Z,97007.44
2022-08-26T05:46:37.681Z,97012.78
2022-08-26T05:49:12.235Z,97004.31
2022-08-26T05:51:41.989Z,97000.00
2022-08-26T05:54:10.710Z,97013.19
2022-08-26T05:56:39.474Z,97011.53
2022-08-26T05:59:14.294Z,97013.19
2022-08-26T06:01:44.628Z,97013.19
2022-08-26T06:04:13.268Z,97013.41
2022-08-26T06:06:42.701Z,97012.56
2022-08-26T06:09:13.638Z,97011.94
2022-08-26T06:11:42.135Z,97011.94
2022-08-26T06:14:11.707Z,97011.13
2022-08-26T06:16:43.778Z,97009.25
2022-08-26T06:19:16.188Z,97009.69
2022-08-26T06:21:47.837Z,97021.44
2022-08-26T06:24:40.583Z,97020.41
2022-08-26T06:27:13.510Z,97021.22
2022-08-26T06:29:42.566Z,97018.56
2022-08-26T06:32:10.979Z,97022.88
2022-08-26T06:34:41.085Z,97024.75
2022-08-26T06:37:10.018Z,97020.22
2022-08-26T06:39:41.059Z,97023.09
2022-08-26T06:42:10.903Z,97025.78
2022-08-26T06:44:41.608Z,97022.25
2022-08-26T06:47:13.188Z,97036.50
2022-08-26T06:49:44.246Z,97040.81
2022-08-26T06:52:12.924Z,97026.41
2022-08-26T06:54:43.149Z,97031.75
2022-08-26T06:57:14.244Z,97024.53
2022-08-26T06:59:45.139Z,97035.06
2022-08-26T07:02:13.834Z,97028.03
2022-08-26T07:04:44.460Z,97025.38
2022-08-26T07:07:17.053Z,97032.59
2022-08-26T07:09:46.793Z,97030.72
2022-08-26T07:12:18.291Z,97032.59
2022-08-26T07:14:47.427Z,97031.88
2022-08-26T07:17:17.093Z,97023.16
2022-08-26T07:19:50.213Z,97027.59
2022-08-26T07:22:18.767Z,97029.13
2022-08-26T07:24:47.222Z,97033.09
2022-08-26T07:27:17.178Z,97024.66
2022-08-26T07:29:45.932Z,97029.69
2022-08-26T07:32:15.810Z,97032.09
2022-08-26T07:34:44.813Z,97026.59
2022-08-26T07:37:14.578Z,97029.06
2022-08-26T07:39:44.325Z,97028.22
2022-08-26T07:42:14.802Z,97029.84
2022-08-26T07:44:44.338Z,97033.13
2022-08-26T07:47:25.885Z,97030.25
2022-08-26T07:49:56.019Z,97029.38
2022-08-26T07:52:28.068Z,97032.28
2022-08-26T07:54:58.106Z,97026.00
2022-08-26T07:57:26.577Z,97035.31
2022-08-26T07:59:55.865Z,97031.59
2022-08-26T08:02:26.204Z,97028.34
2022-08-26T08:04:54.823Z,97027.00
2022-08-26T08:07:38.764Z,97027.06
2022-08-26T08:10:16.094Z,97030.16
2022-08-26T08:12:45.027Z,97030.59
2022-08-26T08:15:14.586Z,97030.63
2022-08-26T08:17:44.195Z,97021.75
2022-08-26T08:20:14.224Z,97019.28
2022-08-26T08:22:44.692Z,97015.53
2022-08-26T08:25:13.703Z,97008.19
2022-08-26T08:27:43.244Z,97010.25
2022-08-26T08:30:13.847Z,97009.44
2022-08-26T08:32:43.643Z,97006.75
2022-08-26T08:35:14.275Z,97015.22
2022-08-26T08:37:45.091Z,97013.56
2022-08-26T08:40:18.133Z,97013.56
2022-08-26T08:42:48.713Z,97011.94
2022-08-26T08:45:21.887Z,97010.91
2022-08-26T08:47:54.589Z,97000.41
2022-08-26T08:50:28.449Z,97009.50
2022-08-26T08:53:16.473Z,97004.34
2022-08-26T08:55:58.165Z,97009.50
2022-08-26T08:58:35.771Z,97003.13
2022-08-26T09:01:07.174Z,97002.16
2022-08-26T09:03:48.570Z,96994.53
2022-08-26T09:06:20.571Z,97001.75
2022-08-26T09:08:51.768Z,97002.78
2022-08-26T09:11:21.335Z,96996.19
2022-08-26T09:13:53.846Z,96990.19
2022-08-26T09:16:26.408Z,96995.75
2022-08-26T09:19:05.777Z,96988.56
2022-08-26T09:21:34.445Z,96990.63
2022-08-26T09:24:04.601Z,96994.13
2022-08-26T09:26:44.410Z,96992.47
2022-08-26T09:32:16.148Z,96993.50
2022-08-26T09:34:55.369Z,96993.91
2022-08-26T09:37:39.232Z,96990.19
2022-08-26T09:40:27.379Z,96985.41
2022-08-26T09:43:11.318Z,96980.06
2022-08-26T09:45:41.619Z,96990.59
2022-08-26T09:48:26.992Z,96990.16
2022-08-26T09:50:59.461Z,96977.59
2022-08-26T09:53:30.664Z,96968.06
2022-08-26T09:56:17.622Z,96956.66
2022-08-26T09:58:47.593Z,96962.59
2022-08-26T10:01:32.901Z,96952.03
2022-08-26T10:04:08.181Z,96956.41
2022-08-26T10:06:40.700Z,96956.19
2022-08-26T10:09:13.789Z,96948.88
2022-08-26T10:11:45.794Z,96941.63
2022-08-26T10:14:19.057Z,96943.19
2022-08-26T10:16:53.242Z,96929.03
2022-08-26T10:19:29.258Z,96927.41
2022-08-26T10:22:19.506Z,96923.41
2022-08-26T10:24:54.526Z,96924.22
2022-08-26T10:27:28.629Z,96917.28
2022-08-26T10:30:01.506Z,96917.53
2022-08-26T10:32:35.246Z,96915.56
2022-08-26T10:35:11.881Z,96918.50
2022-08-26T10:37:42.928Z,96923.66
2022-08-26T10:40:14.750Z,96927.59
2022-08-26T10:42:49.513Z,96925.13
2022-08-26T10:45:20.388Z,96923.50
2022-08-26T10:47:55.138Z,96924.53
2022-08-26T10:50:26.633Z,96921.84
2022-08-26T10:53:01.209Z,96923.28
2022-08-26T10:55:35.238Z,96922.06
2022-08-26T10:58:26.668Z,96913.38
2022-08-26T11:01:22.996Z,96910.09
2022-08-26T11:03:58.842Z,96909.69
2022-08-26T11:06:29.737Z,96910.50
2022-08-26T11:08:59.604Z,96912.38
2022-08-26T11:11:49.998Z,96921.03
2022-08-26T11:14:58.653Z,96924.34
2022-08-26T11:17:57.073Z,96917.09
2022-08-26T11:20:36.485Z,96912.78
2022-08-26T11:23:38.893Z,96901.59
2022-08-26T11:26:30.037Z,96903.47
2022-08-26T11:29:06.575Z,96901.59
2022-08-26T11:31:57.052Z,96906.38
2022-08-26T11:34:55.154Z,96911.53
2022-08-26T11:37:30.878Z,96900.78
2022-08-26T11:40:02.953Z,96896.22
2022-08-26T11:42:41.003Z,96894.16
2022-08-26T11:45:19.259Z,96896.41
2022-08-26T11:47:49.480Z,96893.72
2022-08-26T11:50:20.509Z,96889.38
2022-08-26T11:52:53.808Z,96885.66
2022-08-26T11:55:23.316Z,96888.34
2022-08-26T11:57:55.114Z,96883.81
2022-08-26T12:00:33.564Z,96882.53
2022-08-26T12:03:08.834Z,96883.38
2022-08-26T12:05:42.811Z,96873.22
2022-08-26T12:08:15.353Z,96866.00
2022-08-26T12:10:43.871Z,96870.16
2022-08-26T12:13:22.064Z,96863.53
2022-08-26T12:15:55.778Z,96863.31
2022-08-26T12:18:28.816Z,96852.94
2022-08-26T12:21:00.526Z,96847.34
2022-08-26T12:23:43.365Z,96847.75
2022-08-26T12:26:23.833Z,96847.91
2022-08-26T12:28:55.463Z,96843.97
2022-08-26T12:31:29.178Z,96835.47
2022-08-26T12:34:00.251Z,96836.06
2022-08-26T12:36:31.601Z,96832.34
2022-08-26T12:39:08.500Z,96835.22
2022-08-26T12:41:47.475Z,96818.84
2022-08-26T12:44:39.084Z,96831.44
2022-08-26T12:47:10.394Z,96826.03
2022-08-26T12:49:41.150Z,96826.03
2022-08-26T12:52:29.860Z,96823.13
2022-08-26T12:55:00.349Z,96824.09
2022-08-26T12:57:31.785Z,96826.94
2022-08-26T13:00:32.934Z,96816.97
2022-08-26T13:03:02.530Z,96818.81
2022-08-26T13:05:35.530Z,96815.66
2022-08-26T13:08:16.736Z,96811.75
2022-08-26T13:10:47.734Z,96813.81
2022-08-26T13:13:16.147Z,96819.63
2022-08-26T13:15:44.718Z,96805.13
2022-08-26T13:18:13.134Z,96811.50
2022-08-26T13:20:44.885Z,96801.94
2022-08-26T13:23:13.574Z,96809.78
2022-08-26T13:25:42.317Z,96813.06
2022-08-26T13:28:10.763Z,96810.75
2022-08-26T13:30:39.760Z,96812.41
2022-08-26T13:33:10.902Z,96805.53
2022-08-26T13:35:44.379Z,96803.06
2022-08-26T13:38:32.930Z,96804.25
2022-08-26T13:41:02.687Z,96799.47
2022-08-26T13:43:31.508Z,96802.31
2022-08-26T13:46:02.624Z,96801.06
2022-08-26T13:48:40.220Z,96802.25
2022-08-26T13:51:14.648Z,96802.63
2022-08-26T13:53:43.161Z,96804.28
2022-08-26T13:56:11.643Z,96795.16
2022-08-26T13:58:40.139Z,96797.63
2022-08-26T14:01:09.882Z,96802.56
2022-08-26T14:03:39.053Z,96803.94
2022-08-26T14:06:07.544Z,96799.16
2022-08-26T14:08:37.380Z,96801.63
2022-08-26T14:11:05.927Z,96808.44
2022-08-26T14:13:34.550Z,96797.06
2022-08-26T14:16:04.188Z,96801.78
2022-08-26T14:18:38.388Z,96792.00
2022-08-26T14:21:10.400Z,96782.19
2022-08-26T14:23:41.412Z,96783.97
2022-08-26T14:26:14.329Z,96786.44
2022-08-26T14:28:56.973Z,96786.44
2022-08-26T14:31:27.098Z,96785.25
2022-08-26T14:33:58.199Z,96783.84
2022-08-26T14:36:29.564Z,96784.06
2022-08-26T14:39:01.932Z,96779.28
2022-08-26T14:41:32.641Z,96788.19
2022-08-26T14:44:03.590Z,96784.66
2022-08-26T14:46:34.531Z,96781.16
2022-08-26T14:49:07.265Z,96779.28
2022-08-26T14:51:38.739Z,96785.72
2022-08-26T14:54:14.772Z,96785.34
2022-08-26T14:56:49.542Z,96783.69
2022-08-26T14:59:20.746Z,96783.69
2022-08-26T15:01:49.558Z,96779.34
2022-08-26T15:04:18.161Z,96783.25
2022-08-26T15:06:46.961Z,96772.69
2022-08-26T15:09:17.838Z,96774.13
2022-08-26T15:11:47.844Z,96768.97
2022-08-26T15:14:19.494Z,96768.59
2022-08-26T15:16:49.474Z,96760.75
2022-08-26T15:19:18.398Z,96754.94
2022-08-26T15:21:47.871Z,96756.00
2022-08-26T15:24:20.521Z,96749.78
2022-08-26T15:26:49.677Z,96747.34
2022-08-26T15:29:18.630Z,96740.31
2022-08-26T15:31:47.641Z,96736.41
2022-08-26T15:34:17.159Z,96745.53
2022-08-26T15:36:47.791Z,96747.41
2022-08-26T15:39:18.329Z,96748.72
2022-08-26T15:41:48.122Z,96754.31
2022-08-26T15:44:17.617Z,96748.34
2022-08-26T15:46:46.495Z,96746.09
2022-08-26T15:49:17.667Z,96742.81
2022-08-26T15:51:48.014Z,96746.34
2022-08-26T15:54:20.494Z,96745.75
2022-08-26T15:56:51.683Z,96747.00
2022-08-26T15:59:21.460Z,96743.72
2022-08-26T16:01:50.026Z,96740.66
2022-08-26T16:04:18.679Z,96749.31
2022-08-26T16:06:50.283Z,96752.63
2022-08-26T16:09:21.380Z,96746.34
2022-08-26T16:11:50.935Z,96746.94
2022-08-26T16:14:19.337Z,96743.34
2022-08-26T16:16:48.027Z,96740.03
2022-08-26T16:19:17.534Z,96733.84
2022-08-26T16:21:46.149Z,96737.22
2022-08-26T16:24:15.275Z,96738.47
2022-08-26T16:26:45.405Z,96737.22
2022-08-26T16:29:15.426Z,96736.63
2022-08-26T16:31:44.122Z,96736.84
2022-08-26T16:34:12.481Z,96737.53
2022-08-26T16:36:41.187Z,96736.91
2022-08-26T16:39:10.178Z,96733.34
2022-08-26T16:41:38.641Z,96736.69
2022-08-26T16:44:09.119Z,96741.84
2022-08-26T16:46:39.501Z,96742.69
2022-08-26T16:49:08.043Z,96754.03
2022-08-26T16:51:37.704Z,96759.56
2022-08-26T16:54:08.780Z,96761.66
2022-08-26T16:56:38.041Z,96758.22
2022-08-26T16:59:10.649Z,96758.69
2022-08-26T17:01:39.699Z,96761.03
2022-08-26T17:04:08.212Z,96775.47
2022-08-26T17:06:36.798Z,96782.00
2022-08-26T17:09:05.563Z,96784.47
2022-08-26T17:11:34.497Z,96785.63
2022-08-26T17:14:03.022Z,96781.78
2022-08-26T17:16:33.097Z,96797.69
2022-08-26T17:19:02.345Z,96786.97
2022-08-26T17:21:30.977Z,96787.38
2022-08-26T17:23:59.484Z,96795.34
2022-08-26T17:26:28.743Z,96803.59
2022-08-26T17:28:57.337Z,96807.34
2022-08-26T17:31:26.421Z,96802.19
2022-08-26T17:33:56.774Z,96807.34
2022-08-26T17:36:27.626Z,96808.66
2022-08-26T17:38:57.888Z,96799.56
2022-08-26T17:41:27.031Z,96797.88
2022-08-26T17:43:55.893Z,96799.19
2022-08-26T17:46:25.310Z,96806.81
2022-08-26T17:48:53.904Z,96810.75
2022-08-26T17:51:23.964Z,96818.56
2022-08-26T17:53:52.973Z,96812.38
2022-08-26T17:56:24.969Z,96819.59
2022-08-26T17:58:54.952Z,96832.38
2022-08-26T18:01:26.967Z,96831.75
2022-08-26T18:04:00.172Z,96834.25
2022-08-26T18:06:31.693Z,96837.75
2022-08-26T18:09:00.972Z,96838.38
2022-08-26T18:11:30.103Z,96847.44
2022-08-26T18:13:58.903Z,96840.22
2022-08-26T18:16:27.644Z,96841.25
2022-08-26T18:18:56.381Z,96840.41
2022-08-26T18:21:26.796Z,96853.16
2022-08-26T18:23:56.910Z,96852.31
2022-08-26T18:26:28.146Z,96855.00
2022-08-26T18:28:56.597Z,96849.41
2022-08-26T18:31:25.097Z,96861.19
2022-08-26T18:33:54.021Z,96859.75
2022-08-26T18:36:25.008Z,96857.06
2022-08-26T18:38:54.275Z,96858.09
2022-08-26T18:41:26.591Z,96849.00
2022-08-26T18:43:56.040Z,96848.16
2022-08-26T18:46:26.056Z,96834.75
2022-08-26T18:48:55.023Z,96835.59
2022-08-26T18:51:25.573Z,96832.06
2022-08-26T18:53:54.421Z,96830.81
2022-08-26T18:56:25.262Z,96823.19
2022-08-26T18:58:53.943Z,96818.47
2022-08-26T19:01:26.673Z,96806.09
2022-08-26T19:03:55.734Z,96812.09
2022-08-26T19:06:25.279Z,96807.75
2022-08-26T19:08:54.224Z,96805.25
2022-08-26T19:11:32.372Z,96809.41
2022-08-26T19:14:07.604Z,96824.25
2022-08-26T19:16:36.731Z,96830.03
2022-08-26T19:19:05.375Z,96838.31
2022-08-26T19:21:35.294Z,96841.59
2022-08-26T19:24:06.409Z,96843.31
2022-08-26T19:26:36.569Z,96851.56
2022-08-26T19:29:05.379Z,96857.75
2022-08-26T19:31:33.861Z,96867.25
2022-08-26T19:34:02.605Z,96875.50
2022-08-26T19:36:31.211Z,96879.19
2022-08-26T19:39:03.753Z,96886.84
2022-08-26T19:41:37.474Z,96899.59
2022-08-26T19:44:10.192Z,96899.59
2022-08-26T19:46:39.547Z,96910.72
2022-08-26T19:49:08.070Z,96923.72
2022-08-26T19:51:37.330Z,96939.81
2022-08-26T19:54:06.100Z,96941.28
2022-08-26T19:56:34.902Z,96932.00
2022-08-26T19:59:03.341Z,96931.38
2022-08-26T20:01:33.224Z,96939.22
2022-08-26T20:04:01.649Z,96919.81
2022-08-26T20:06:30.181Z,96929.31
2022-08-26T20:08:58.566Z,96935.28
2022-08-26T20:11:27.338Z,96931.78
2022-08-26T20:13:55.827Z,96939.00
2022-08-26T20:16:24.333Z,96932.19
2022-08-26T20:19:11.815Z,96927.28
2022-08-26T20:21:41.344Z,96945.03
2022-08-26T20:24:13.798Z,96944.81
2022-08-26T20:26:44.021Z,96953.06
2022-08-26T20:29:14.736Z,96938.63
2022-08-26T20:31:44.099Z,96945.84
2022-08-26T20:34:15.037Z,96931.81
2022-08-26T20:36:44.196Z,96931.19
2022-08-26T20:39:12.876Z,96928.72
2022-08-26T20:41:42.367Z,96928.94
2022-08-26T20:44:11.975Z,96934.50
2022-08-26T20:46:40.724Z,96926.25
2022-08-26T20:49:09.451Z,96925.00
2022-08-26T20:51:39.496Z,96921.50
2022-08-26T20:54:08.593Z,96916.75
2022-08-26T20:56:37.504Z,96913.88
2022-08-26T20:59:07.713Z,96918.38
2022-08-26T21:01:41.986Z,96916.91
2022-08-26T21:04:13.834Z,96922.69
2022-08-26T21:06:52.112Z,96914.88
2022-08-26T21:09:22.254Z,96930.34
2022-08-26T21:11:51.813Z,96932.44
2022-08-26T21:14:22.847Z,96931.81
2022-08-26T21:16:54.488Z,96931.41
2022-08-26T21:19:23.185Z,96934.91
2022-08-26T21:21:52.975Z,96949.75
2022-08-26T21:24:21.421Z,96956.38
2022-08-26T21:26:49.873Z,96957.59
2022-08-26T21:29:18.259Z,96964.19
2022-08-26T21:31:47.062Z,96967.91
2022-08-26T21:34:16.026Z,96967.28
2022-08-26T21:36:44.433Z,96971.19
2022-08-26T21:39:14.417Z,96979.41
2022-08-26T21:41:44.198Z,96972.81
2022-08-26T21:44:13.700Z,96974.03
2022-08-26T21:46:42.673Z,96990.13
2022-08-26T21:49:13.020Z,96993.00
2022-08-26T21:51:45.835Z,96996.72
2022-08-26T21:54:15.827Z,96995.47
2022-08-26T21:56:47.371Z,96993.22
2022-08-26T21:59:18.357Z,96994.03
2022-08-26T22:01:47.011Z,96993.63
2022-08-26T22:04:15.451Z,96991.34
2022-08-26T22:06:45.493Z,96993.19
2022-08-26T22:09:16.561Z,96986.78
2022-08-26T22:11:45.786Z,96968.25
2022-08-26T22:14:15.007Z,96969.09
2022-08-26T22:16:50.256Z,96954.22
2022-08-26T22:19:20.330Z,96950.09
2022-08-26T22:21:50.099Z,96955.06
2022-08-26T22:24:21.676Z,96942.47
2022-08-26T22:26:50.764Z,96940.41
2022-08-26T22:29:19.979Z,96938.78
2022-08-26T22:31:48.528Z,96940.44
2022-08-26T22:34:19.443Z,96943.31
2022-08-26T22:36:49.743Z,96950.13
2022-08-26T22:39:22.325Z,96943.75
2022-08-26T22:41:50.869Z,96941.88
2022-08-26T22:44:20.432Z,96945.59
2022-08-26T22:46:50.128Z,96940.84
2022-08-26T22:49:19.559Z,96941.47
2022-08-26T22:51:48.077Z,96928.28
2022-08-26T22:54:17.219Z,96923.53
2022-08-26T22:56:47.058Z,96923.72
2022-08-26T22:59:16.231Z,96927.84
2022-08-26T23:01:46.280Z,96918.16
2022-08-26T23:04:14.884Z,96919.19
2022-08-26T23:06:47.353Z,96915.47
2022-08-26T23:09:17.998Z,96916.09
2022-08-26T23:11:48.891Z,96921.25
2022-08-26T23:14:18.203Z,96921.25
2022-08-26T23:16:47.321Z,96916.72
2022-08-26T23:19:17.674Z,96919.41
2022-08-26T23:21:46.197Z,96915.53
2022-08-26T23:24:15.279Z,96910.16
2022-08-26T23:26:44.086Z,96909.34
2022-08-26T23:29:15.575Z,96896.97
2022-08-26T23:31:44.144Z,96896.97
2022-08-26T23:34:32.864Z,96898.59
2022-08-26T23:37:01.437Z,96885.41
2022-08-26T23:39:30.149Z,96896.97
2022-08-26T23:41:58.654Z,96884.56
2022-08-26T23:44:28.532Z,96897.78
2022-08-26T23:46:57.707Z,96898.81
2022-08-26T23:49:26.640Z,96899.63
2022-08-26T23:52:13.235Z,96896.97
2022-08-26T23:54:41.756Z,96904.34
2022-08-26T23:57:10.858Z,96906.00
2022-08-26T23:59:40.628Z,96908.69
